Time;durP1;ratioP1;P1;durP2;ratioP2;P2;SDS_P1;SDS_P2;PMS_P1;PMS_P2;Temp;Humidity;BMP_temperature;BMP_pressure;BME280_temperature;BME280_humidity;BME280_pressure;Samples;Min_cycle;Max_cycle;Signal;HPM_P1;HPM_P2
2023/03/24 00:02:12;;;;;;;;;;;11.20;99.90;;;;;;5064899;28;19927;-70
2023/03/24 00:04:41;;;;;;;;;;;11.20;99.90;;;;;;4974071;28;209711;-70
2023/03/24 00:07:08;;;;;;;;;;;11.20;99.90;;;;;;5054868;28;19928;-71
2023/03/24 00:09:35;;;;;;;;;;;11.20;99.90;;;;;;4999135;28;218528;-73
2023/03/24 00:12:01;;;;;;;;;;;11.20;99.90;;;;;;5029313;28;19927;-71
2023/03/24 00:14:30;;;;;;;;;;;11.20;99.90;;;;;;4996050;28;208509;-71
2023/03/24 00:16:58;;;;;;;;;;;11.20;99.90;;;;;;5047349;28;19935;-73
2023/03/24 00:19:26;;;;;;;;;;;11.20;99.90;;;;;;5011742;28;209593;-72
2023/03/24 00:21:54;;;;;;;;;;;11.20;99.90;;;;;;5067587;28;20885;-71
2023/03/24 00:24:21;;;;;;;;;;;11.20;99.90;;;;;;5000950;28;226394;-70
2023/03/24 00:26:49;;;;;;;;;;;11.20;99.90;;;;;;5042352;28;19925;-69
2023/03/24 00:29:15;;;;;;;;;;;11.20;99.90;;;;;;5003123;28;208545;-69
2023/03/24 00:31:42;;;;;;;;;;;11.20;99.90;;;;;;5046248;28;19925;-70
2023/03/24 00:34:12;;;;;;;;;;;11.20;99.90;;;;;;5003925;28;214991;-70
2023/03/24 00:36:38;;;;;;;;;;;11.20;99.90;;;;;;5072611;28;19928;-69
2023/03/24 00:39:05;;;;;;;;;;;11.10;99.90;;;;;;4999431;28;208347;-72
2023/03/24 00:41:31;;;;;;;;;;;11.10;99.90;;;;;;5071639;28;19931;-72
2023/03/24 00:43:57;;;;;;;;;;;11.10;99.90;;;;;;5003091;28;208421;-71
2023/03/24 00:46:27;;;;;;;;;;;11.20;99.90;;;;;;5071714;28;19924;-70
2023/03/24 00:49:01;;;;;;;;;;;11.10;99.90;;;;;;5013768;28;206159;-72
2023/03/24 00:51:28;;;;;;;;;;;11.10;99.90;;;;;;5076783;28;19924;-75
2023/03/24 00:53:56;;;;;;;;;;;11.10;99.90;;;;;;4989898;28;206131;-73
2023/03/24 00:56:23;;;;;;;;;;;11.10;99.90;;;;;;5063711;28;19929;-72
2023/03/24 00:58:49;;;;;;;;;;;11.10;99.90;;;;;;5011937;28;206940;-73
2023/03/24 01:01:16;;;;;;;;;;;11.10;99.90;;;;;;5062943;28;19924;-72
2023/03/24 01:03:47;;;;;;;;;;;11.10;99.90;;;;;;5022855;28;211808;-74
2023/03/24 01:06:12;;;;;;;;;;;11.10;99.90;;;;;;5007134;28;189830;-71
2023/03/24 01:08:39;;;;;;;;;;;11.10;99.90;;;;;;5049422;28;207436;-73
2023/03/24 01:11:05;;;;;;;;;;;11.10;99.90;;;;;;5041351;28;64510;-73
2023/03/24 01:13:33;;;;;;;;;;;11.00;99.90;;;;;;5066257;28;19932;-75
2023/03/24 01:15:58;;;;;;;;;;;11.00;99.90;;;;;;5016231;28;206678;-73
2023/03/24 01:18:26;;;;;;;;;;;11.10;99.90;;;;;;5059346;28;19924;-74
2023/03/24 01:20:52;;;;;;;;;;;11.10;99.90;;;;;;5019732;28;209566;-73
2023/03/24 01:23:20;;;;;;;;;;;11.00;99.90;;;;;;5065460;28;19934;-73
2023/03/24 01:25:47;;;;;;;;;;;11.00;99.90;;;;;;5008141;28;211824;-73
2023/03/24 01:28:15;;;;;;;;;;;11.00;99.90;;;;;;5058143;28;19924;-73
2023/03/24 01:30:41;;;;;;;;;;;11.10;99.90;;;;;;4998489;28;219983;-74
2023/03/24 01:33:07;;;;;;;;;;;11.10;99.90;;;;;;5064933;28;20038;-74
2023/03/24 01:35:33;;;;;;;;;;;11.10;99.90;;;;;;5017280;28;217704;-74
2023/03/24 01:37:59;;;;;;;;;;;11.10;99.90;;;;;;5054851;28;20335;-74
2023/03/24 01:40:27;;;;;;;;;;;11.10;99.90;;;;;;5021061;27;206890;-73
2023/03/24 01:42:53;;;;;;;;;;;11.10;99.90;;;;;;5065991;28;19929;-75
2023/03/24 01:45:40;;;;;;;;;;;11.10;99.90;;;;;;5006842;28;160739;-73
2023/03/24 01:48:15;;;;;;;;;;;11.10;99.90;;;;;;5043133;28;20401;-74
2023/03/24 01:50:45;;;;;;;;;;;11.10;99.90;;;;;;5015382;28;216605;-74
2023/03/24 01:53:11;;;;;;;;;;;11.10;99.90;;;;;;5072021;28;19928;-72
2023/03/24 01:55:37;;;;;;;;;;;11.10;99.90;;;;;;5009821;28;206945;-74
2023/03/24 01:58:06;;;;;;;;;;;11.10;99.90;;;;;;5059435;28;19920;-74
2023/03/24 02:00:32;;;;;;;;;;;11.10;99.90;;;;;;4977943;28;205996;-74
2023/03/24 02:03:02;;;;;;;;;;;11.20;99.90;;;;;;5040972;28;20184;-72
2023/03/24 02:05:30;;;;;;;;;;;11.10;99.90;;;;;;4987309;28;277364;-74
2023/03/24 02:08:08;;;;;;;;;;;11.20;99.90;;;;;;5060299;28;19936;-72
2023/03/24 02:10:35;;;;;;;;;;;11.20;99.90;;;;;;5023018;28;209559;-75
2023/03/24 02:13:02;;;;;;;;;;;11.20;99.90;;;;;;5059767;28;20553;-73
2023/03/24 02:15:30;;;;;;;;;;;11.20;99.90;;;;;;5007942;28;206189;-73
2023/03/24 02:18:06;;;;;;;;;;;11.20;99.90;;;;;;5061288;28;19921;-71
2023/03/24 02:20:50;;;;;;;;;;;11.20;99.90;;;;;;5003869;28;207764;-71
2023/03/24 02:23:25;;;;;;;;;;;11.20;99.90;;;;;;5071021;28;19938;-72
2023/03/24 02:25:51;;;;;;;;;;;11.20;99.90;;;;;;5025567;28;146957;-72
2023/03/24 02:28:17;;;;;;;;;;;11.30;99.90;;;;;;5058884;28;20414;-71
2023/03/24 02:30:52;;;;;;;;;;;11.30;99.90;;;;;;5010059;28;210723;-72
2023/03/24 02:33:34;;;;;;;;;;;11.30;99.90;;;;;;5059749;28;19936;-72
2023/03/24 02:36:19;;;;;;;;;;;11.30;99.90;;;;;;5014389;28;201705;-73
2023/03/24 02:38:56;;;;;;;;;;;11.30;99.90;;;;;;5000828;28;207470;-71
2023/03/24 02:41:26;;;;;;;;;;;11.30;99.90;;;;;;5070639;28;19924;-72
2023/03/24 02:44:18;;;;;;;;;;;11.40;99.90;;;;;;4998514;28;231462;-72
2023/03/24 02:46:48;;;;;;;;;;;11.30;99.90;;;;;;5050897;28;19932;-73
2023/03/24 02:49:20;;;;;;;;;;;11.40;99.90;;;;;;5020852;28;211264;-73
2023/03/24 02:52:02;;;;;;;;;;;11.40;99.90;;;;;;5039401;28;19926;-74
2023/03/24 02:54:39;;;;;;;;;;;11.30;99.90;;;;;;4999516;28;230304;-75
2023/03/24 02:57:09;;;;;;;;;;;11.40;99.90;;;;;;5054009;28;20423;-74
2023/03/24 02:59:41;;;;;;;;;;;11.30;99.90;;;;;;5009321;28;228865;-73
2023/03/24 03:02:11;;;;;;;;;;;11.30;99.90;;;;;;5067610;28;19939;-74
2023/03/24 03:04:45;;;;;;;;;;;11.30;99.90;;;;;;4995914;28;228438;-74
2023/03/24 03:07:11;;;;;;;;;;;11.30;99.90;;;;;;5042066;28;19928;-75
2023/03/24 03:09:41;;;;;;;;;;;11.30;99.90;;;;;;4987096;28;203171;-75
2023/03/24 03:12:09;;;;;;;;;;;11.40;99.90;;;;;;5060240;28;20403;-75
2023/03/24 03:14:40;;;;;;;;;;;11.40;99.90;;;;;;4999690;28;209164;-75
2023/03/24 03:17:15;;;;;;;;;;;11.30;99.90;;;;;;5055252;28;19929;-75
2023/03/24 03:20:01;;;;;;;;;;;11.40;99.90;;;;;;5003660;28;209828;-74
2023/03/24 03:22:30;;;;;;;;;;;11.40;99.90;;;;;;5064073;28;19936;-75
2023/03/24 03:24:56;;;;;;;;;;;11.50;99.90;;;;;;5029033;28;106320;-75
2023/03/24 03:27:26;;;;;;;;;;;11.50;99.90;;;;;;5071452;28;19929;-76
2023/03/24 03:29:59;;;;;;;;;;;11.50;99.90;;;;;;5007014;28;203972;-75
2023/03/24 03:32:34;;;;;;;;;;;11.50;99.90;;;;;;5055646;28;19967;-76
2023/03/24 03:35:04;;;;;;;;;;;11.50;99.90;;;;;;5006802;28;180616;-76
2023/03/24 03:37:40;;;;;;;;;;;11.50;99.90;;;;;;5058214;28;20405;-76
2023/03/24 03:40:10;;;;;;;;;;;11.50;99.90;;;;;;5010425;28;202150;-77
2023/03/24 03:42:38;;;;;;;;;;;11.40;99.90;;;;;;5081057;28;19932;-79
2023/03/24 03:45:05;;;;;;;;;;;11.20;99.90;;;;;;5013946;28;241576;-79
2023/03/24 03:47:31;;;;;;;;;;;11.00;99.90;;;;;;5055693;28;19928;-75
2023/03/24 03:49:57;;;;;;;;;;;10.90;99.90;;;;;;5001015;28;207611;-77
2023/03/24 03:52:23;;;;;;;;;;;10.90;99.90;;;;;;5054543;28;19971;-73
2023/03/24 03:54:50;;;;;;;;;;;10.80;99.90;;;;;;4988343;28;232563;-74
2023/03/24 03:57:17;;;;;;;;;;;10.80;99.90;;;;;;5062489;28;19932;-77
2023/03/24 03:59:43;;;;;;;;;;;10.80;99.90;;;;;;5008118;28;206925;-74
2023/03/24 04:02:28;;;;;;;;;;;10.80;99.90;;;;;;5063494;28;19920;-75
2023/03/24 04:05:08;;;;;;;;;;;10.70;99.90;;;;;;4979594;28;207306;-72
2023/03/24 04:07:46;;;;;;;;;;;10.70;99.90;;;;;;5052836;28;20369;-75
2023/03/24 04:10:12;;;;;;;;;;;10.60;99.90;;;;;;5000979;28;243736;-74
2023/03/24 04:12:40;;;;;;;;;;;10.50;99.90;;;;;;5063181;28;19924;-73
2023/03/24 04:15:11;;;;;;;;;;;10.50;99.90;;;;;;5003078;28;166319;-73
2023/03/24 04:17:49;;;;;;;;;;;10.50;99.90;;;;;;5049879;28;19936;-72
2023/03/24 04:20:21;;;;;;;;;;;10.50;99.90;;;;;;5008379;28;207571;-72
2023/03/24 04:23:01;;;;;;;;;;;10.50;99.90;;;;;;5062757;28;20269;-73
2023/03/24 04:25:48;;;;;;;;;;;10.40;99.90;;;;;;4991870;28;220346;-72
2023/03/24 04:28:29;;;;;;;;;;;10.40;99.90;;;;;;5057015;28;19944;-72
2023/03/24 04:31:16;;;;;;;;;;;10.40;99.90;;;;;;5000735;28;205301;-71
2023/03/24 04:33:57;;;;;;;;;;;10.30;99.90;;;;;;5021893;28;208704;-72
2023/03/24 04:36:26;;;;;;;;;;;10.30;99.90;;;;;;5043567;28;19920;-71
2023/03/24 04:38:53;;;;;;;;;;;10.20;99.90;;;;;;4999870;28;210539;-73
2023/03/24 04:41:20;;;;;;;;;;;10.20;99.90;;;;;;5071840;28;19963;-72
2023/03/24 04:43:47;;;;;;;;;;;10.10;99.90;;;;;;5011281;28;208941;-73
2023/03/24 04:46:16;;;;;;;;;;;10.10;99.90;;;;;;5055868;28;19924;-72
2023/03/24 04:48:43;;;;;;;;;;;10.10;99.90;;;;;;5025214;28;213001;-72
2023/03/24 04:51:10;;;;;;;;;;;10.00;99.90;;;;;;5012179;28;19931;-73
2023/03/24 04:53:36;;;;;;;;;;;10.00;99.90;;;;;;5057888;28;19924;-73
2023/03/24 04:56:12;;;;;;;;;;;9.90;99.90;;;;;;4980078;28;238504;-72
2023/03/24 04:58:38;;;;;;;;;;;9.90;99.90;;;;;;5043421;28;206028;-72
2023/03/24 05:01:05;;;;;;;;;;;9.80;99.90;;;;;;5018001;28;218946;-72
2023/03/24 05:03:31;;;;;;;;;;;9.80;99.90;;;;;;5065013;28;19924;-72
2023/03/24 05:05:58;;;;;;;;;;;9.80;99.90;;;;;;5006056;28;210590;-72
2023/03/24 05:08:24;;;;;;;;;;;9.80;99.90;;;;;;5065803;28;19928;-70
2023/03/24 05:10:50;;;;;;;;;;;9.70;99.90;;;;;;5000922;28;205317;-72
2023/03/24 05:13:16;;;;;;;;;;;9.70;99.90;;;;;;5066838;28;19942;-71
2023/03/24 05:15:42;;;;;;;;;;;9.70;99.90;;;;;;5015769;28;278980;-72
2023/03/24 05:18:08;;;;;;;;;;;9.70;99.90;;;;;;5055195;28;19928;-71
2023/03/24 05:20:34;;;;;;;;;;;9.80;99.90;;;;;;4997543;28;233068;-72
2023/03/24 05:23:00;;;;;;;;;;;9.80;99.90;;;;;;5059763;28;19932;-71
2023/03/24 05:25:26;;;;;;;;;;;9.80;99.90;;;;;;5030325;28;113447;-71
2023/03/24 05:27:52;;;;;;;;;;;9.80;99.90;;;;;;5062661;28;19928;-71
2023/03/24 05:30:21;;;;;;;;;;;9.80;99.90;;;;;;5018634;28;209950;-72
2023/03/24 05:32:47;;;;;;;;;;;9.80;99.90;;;;;;5057824;28;19920;-72
2023/03/24 05:35:13;;;;;;;;;;;9.80;99.90;;;;;;5010865;28;194692;-73
2023/03/24 05:37:39;;;;;;;;;;;9.70;99.90;;;;;;5066856;28;19932;-72
2023/03/24 05:40:05;;;;;;;;;;;9.70;99.90;;;;;;5003716;28;210545;-72
2023/03/24 05:42:31;;;;;;;;;;;9.60;99.90;;;;;;5068067;28;20491;-72
2023/03/24 05:44:57;;;;;;;;;;;9.60;99.90;;;;;;5020014;28;208652;-72
2023/03/24 05:47:23;;;;;;;;;;;9.60;99.90;;;;;;5069062;28;20014;-72
2023/03/24 05:49:50;;;;;;;;;;;9.50;99.90;;;;;;5017676;28;87364;-72
2023/03/24 05:52:19;;;;;;;;;;;9.50;99.90;;;;;;5049816;28;19921;-71
2023/03/24 05:54:48;;;;;;;;;;;9.50;99.90;;;;;;5011964;28;204359;-72
2023/03/24 05:57:15;;;;;;;;;;;9.50;99.90;;;;;;5052905;28;20399;-73
2023/03/24 05:59:41;;;;;;;;;;;9.50;99.90;;;;;;5020754;28;69042;-73
2023/03/24 06:02:07;;;;;;;;;;;9.50;99.90;;;;;;5055265;28;19928;-71
2023/03/24 06:04:33;;;;;;;;;;;9.40;99.90;;;;;;4996604;28;210827;-73
2023/03/24 06:06:59;;;;;;;;;;;9.40;99.90;;;;;;5063658;28;19928;-72
2023/03/24 06:09:31;;;;;;;;;;;9.50;99.90;;;;;;4951168;28;1338215;-73
2023/03/24 06:11:57;;;;;;;;;;;9.40;99.90;;;;;;5034579;28;19928;-71
2023/03/24 06:14:24;;;;;;;;;;;9.40;99.90;;;;;;4992286;28;207739;-72
2023/03/24 06:16:50;;;;;;;;;;;9.40;99.90;;;;;;5052673;28;19957;-71
2023/03/24 06:19:16;;;;;;;;;;;9.40;99.90;;;;;;5016375;28;207196;-72
2023/03/24 06:21:43;;;;;;;;;;;9.40;99.90;;;;;;5070020;28;19925;-72
2023/03/24 06:24:13;;;;;;;;;;;9.40;99.90;;;;;;5004140;28;221088;-73
2023/03/24 06:26:40;;;;;;;;;;;9.50;99.90;;;;;;5069327;28;19929;-72
2023/03/24 06:29:07;;;;;;;;;;;9.50;99.90;;;;;;4990600;28;207532;-72
2023/03/24 06:31:34;;;;;;;;;;;9.50;99.90;;;;;;5067284;28;19932;-72
2023/03/24 06:34:00;;;;;;;;;;;9.60;99.90;;;;;;4997255;28;209407;-72
2023/03/24 06:36:29;;;;;;;;;;;9.60;99.90;;;;;;5026748;28;19924;-73
2023/03/24 06:38:58;;;;;;;;;;;9.60;99.90;;;;;;4991834;28;212176;-71
2023/03/24 06:41:24;;;;;;;;;;;9.60;99.90;;;;;;5023583;28;20278;-72
2023/03/24 06:43:50;;;;;;;;;;;9.60;99.90;;;;;;4995849;28;210053;-72
2023/03/24 06:46:16;;;;;;;;;;;9.60;99.90;;;;;;5054897;28;19920;-72
2023/03/24 06:48:42;;;;;;;;;;;9.70;99.90;;;;;;5031466;28;203949;-72
2023/03/24 06:51:08;;;;;;;;;;;9.70;99.90;;;;;;5034677;28;20459;-71
2023/03/24 06:53:34;;;;;;;;;;;9.70;99.90;;;;;;5058128;28;20308;-72
2023/03/24 06:56:00;;;;;;;;;;;9.80;99.90;;;;;;4991674;28;206782;-72
2023/03/24 06:58:26;;;;;;;;;;;9.80;99.90;;;;;;5038074;28;19932;-72
2023/03/24 07:00:54;;;;;;;;;;;9.80;99.90;;;;;;4991985;28;206208;-72
2023/03/24 07:03:22;;;;;;;;;;;9.80;99.90;;;;;;5059237;28;19974;-72
2023/03/24 07:05:48;;;;;;;;;;;9.80;99.90;;;;;;4977613;28;206111;-73
2023/03/24 07:08:13;;;;;;;;;;;9.80;99.90;;;;;;5058058;28;19935;-74
2023/03/24 07:10:40;;;;;;;;;;;9.80;99.90;;;;;;4999651;28;209983;-72
2023/03/24 07:13:06;;;;;;;;;;;9.80;99.90;;;;;;5058438;28;19935;-71
2023/03/24 07:15:32;;;;;;;;;;;9.80;99.90;;;;;;4999615;28;207042;-72
2023/03/24 07:18:01;;;;;;;;;;;9.90;99.90;;;;;;5042498;28;19928;-72
2023/03/24 07:20:27;;;;;;;;;;;9.80;99.90;;;;;;4997981;28;206158;-71
2023/03/24 07:22:56;;;;;;;;;;;9.90;99.90;;;;;;5060682;28;20558;-72
2023/03/24 07:25:23;;;;;;;;;;;9.90;99.90;;;;;;5002683;28;205112;-72
2023/03/24 07:27:52;;;;;;;;;;;9.90;99.90;;;;;;5062318;28;20278;-72
2023/03/24 07:30:18;;;;;;;;;;;10.00;99.90;;;;;;5009134;28;211763;-72
2023/03/24 07:32:44;;;;;;;;;;;10.00;99.90;;;;;;5065487;28;20411;-72
2023/03/24 07:35:11;;;;;;;;;;;10.00;99.90;;;;;;4986049;28;200109;-71
2023/03/24 07:37:37;;;;;;;;;;;10.00;99.90;;;;;;5061926;28;20298;-72
2023/03/24 07:40:10;;;;;;;;;;;10.10;99.90;;;;;;5002849;28;211613;-72
2023/03/24 07:42:37;;;;;;;;;;;10.20;99.90;;;;;;5057126;28;19931;-74
2023/03/24 07:45:04;;;;;;;;;;;10.30;99.90;;;;;;5018580;28;209786;-72
2023/03/24 07:47:30;;;;;;;;;;;10.30;99.90;;;;;;5060238;28;19928;-72
2023/03/24 07:49:56;;;;;;;;;;;10.30;99.90;;;;;;5003902;28;212455;-72
2023/03/24 07:52:22;;;;;;;;;;;10.30;99.90;;;;;;5066070;28;19964;-72
2023/03/24 07:54:48;;;;;;;;;;;10.30;99.90;;;;;;5011729;28;212644;-71
2023/03/24 07:57:14;;;;;;;;;;;10.30;99.90;;;;;;5055681;28;20332;-72
2023/03/24 07:59:40;;;;;;;;;;;10.30;99.90;;;;;;5009152;28;206493;-72
2023/03/24 08:02:15;;;;;;;;;;;10.30;99.90;;;;;;5065359;28;19925;-72
2023/03/24 08:04:41;;;;;;;;;;;10.30;99.90;;;;;;4980816;28;214589;-73
2023/03/24 08:07:07;;;;;;;;;;;10.30;99.90;;;;;;5040386;28;20792;-72
2023/03/24 08:09:33;;;;;;;;;;;10.30;99.90;;;;;;4995473;28;223930;-72
2023/03/24 08:11:59;;;;;;;;;;;10.30;99.90;;;;;;5053771;28;19926;-73
2023/03/24 08:14:25;;;;;;;;;;;10.40;99.90;;;;;;4998820;28;205270;-71
2023/03/24 08:16:51;;;;;;;;;;;10.50;99.90;;;;;;5067325;28;19928;-72
2023/03/24 08:19:18;;;;;;;;;;;10.50;99.90;;;;;;5003767;28;208169;-71
2023/03/24 08:21:44;;;;;;;;;;;10.70;99.90;;;;;;5058611;28;19924;-71
2023/03/24 08:24:10;;;;;;;;;;;10.80;99.90;;;;;;5013863;28;207530;-72
2023/03/24 08:26:36;;;;;;;;;;;10.90;99.90;;;;;;5065854;28;19933;-72
2023/03/24 08:29:02;;;;;;;;;;;10.80;99.90;;;;;;4990925;28;212007;-72
2023/03/24 08:31:35;;;;;;;;;;;10.80;99.90;;;;;;5050106;28;19932;-73
2023/03/24 08:34:01;;;;;;;;;;;10.80;99.90;;;;;;5005031;28;207815;-71
2023/03/24 08:36:27;;;;;;;;;;;10.80;99.90;;;;;;5054607;28;19929;-73
2023/03/24 08:38:54;;;;;;;;;;;11.20;99.90;;;;;;5005487;28;207790;-72
2023/03/24 08:41:21;;;;;;;;;;;11.70;99.90;;;;;;5039977;28;19952;-72
2023/03/24 08:43:47;;;;;;;;;;;11.90;99.90;;;;;;4998188;28;207119;-73
2023/03/24 08:46:14;;;;;;;;;;;12.00;99.90;;;;;;5055151;28;19920;-73
2023/03/24 08:48:40;;;;;;;;;;;11.70;99.90;;;;;;5031514;28;207721;-72
2023/03/24 08:51:10;;;;;;;;;;;11.80;99.90;;;;;;5027024;28;89807;-73
2023/03/24 08:53:36;;;;;;;;;;;11.50;99.90;;;;;;5056517;28;19931;-73
2023/03/24 08:56:02;;;;;;;;;;;11.80;99.90;;;;;;5009935;28;212467;-72
2023/03/24 08:58:28;;;;;;;;;;;11.90;99.90;;;;;;5063188;28;19928;-72
2023/03/24 09:00:54;;;;;;;;;;;12.50;99.90;;;;;;5001927;28;217068;-72
2023/03/24 09:03:21;;;;;;;;;;;12.80;99.90;;;;;;5063125;28;19928;-74
2023/03/24 09:05:47;;;;;;;;;;;12.50;99.90;;;;;;4992975;28;215016;-72
2023/03/24 09:08:14;;;;;;;;;;;12.00;99.90;;;;;;5066883;28;20409;-73
2023/03/24 09:10:40;;;;;;;;;;;12.00;99.90;;;;;;5019497;28;208545;-73
2023/03/24 09:13:06;;;;;;;;;;;12.70;99.90;;;;;;5064151;28;19928;-72
2023/03/24 09:15:32;;;;;;;;;;;13.20;99.90;;;;;;5010105;28;205963;-74
2023/03/24 09:17:58;;;;;;;;;;;13.20;99.90;;;;;;5058777;28;19931;-74
2023/03/24 09:20:24;;;;;;;;;;;12.90;99.90;;;;;;5004619;28;208045;-71
2023/03/24 09:22:51;;;;;;;;;;;13.80;99.90;;;;;;5059885;28;20417;-71
2023/03/24 09:25:18;;;;;;;;;;;14.30;99.90;;;;;;4990964;28;206676;-72
2023/03/24 09:27:44;;;;;;;;;;;14.60;99.90;;;;;;5056683;28;20277;-72
2023/03/24 09:30:11;;;;;;;;;;;13.90;99.90;;;;;;5017647;28;206043;-72
2023/03/24 09:32:37;;;;;;;;;;;13.80;99.90;;;;;;5065548;28;19932;-73
2023/03/24 09:35:04;;;;;;;;;;;14.10;99.90;;;;;;5012287;28;212140;-73
2023/03/24 09:37:31;;;;;;;;;;;13.60;99.90;;;;;;5060452;28;19936;-72
2023/03/24 09:39:58;;;;;;;;;;;12.50;99.90;;;;;;5001426;28;208342;-72
2023/03/24 09:42:27;;;;;;;;;;;12.70;99.90;;;;;;5058676;28;21184;-71
2023/03/24 09:44:57;;;;;;;;;;;12.30;99.90;;;;;;5013878;28;207514;-72
2023/03/24 09:47:32;;;;;;;;;;;12.60;99.90;;;;;;5059918;28;19932;-72
2023/03/24 09:50:03;;;;;;;;;;;13.30;99.90;;;;;;4999483;28;216646;-72
2023/03/24 09:52:32;;;;;;;;;;;13.30;99.90;;;;;;5063482;28;19939;-72
2023/03/24 09:55:01;;;;;;;;;;;13.90;99.90;;;;;;5009405;28;214389;-72
2023/03/24 09:57:36;;;;;;;;;;;13.70;99.90;;;;;;5068506;28;19931;-72
2023/03/24 10:00:16;;;;;;;;;;;14.60;99.90;;;;;;5012147;28;212507;-72
2023/03/24 10:02:45;;;;;;;;;;;14.80;99.90;;;;;;5060029;28;19939;-71
2023/03/24 10:05:35;;;;;;;;;;;15.20;99.90;;;;;;4989556;28;207068;-71
2023/03/24 10:08:04;;;;;;;;;;;15.70;99.90;;;;;;5061307;28;19935;-72
2023/03/24 10:10:33;;;;;;;;;;;16.00;99.90;;;;;;5014842;28;207784;-72
2023/03/24 10:13:04;;;;;;;;;;;15.90;99.90;;;;;;5064355;28;19920;-72
2023/03/24 10:15:42;;;;;;;;;;;16.00;99.90;;;;;;5029725;28;210146;-72
2023/03/24 10:18:08;;;;;;;;;;;15.60;99.90;;;;;;5064620;28;19928;-72
2023/03/24 10:20:37;;;;;;;;;;;15.10;99.90;;;;;;5007712;28;212979;-71
2023/03/24 10:23:19;;;;;;;;;;;15.50;99.90;;;;;;5061597;28;19924;-73
2023/03/24 10:26:04;;;;;;;;;;;14.90;99.90;;;;;;5027411;28;219597;-72
2023/03/24 10:28:36;;;;;;;;;;;14.10;99.90;;;;;;5064623;28;19940;-73
2023/03/24 10:31:03;;;;;;;;;;;14.30;99.90;;;;;;5019560;28;231403;-72
2023/03/24 10:33:30;;;;;;;;;;;15.20;99.90;;;;;;5059648;28;19932;-72
2023/03/24 10:36:00;;;;;;;;;;;15.00;99.90;;;;;;5021984;28;220872;-72
2023/03/24 10:38:27;;;;;;;;;;;15.40;99.90;;;;;;5065740;28;19931;-73
2023/03/24 10:40:53;;;;;;;;;;;15.70;99.60;;;;;;5023713;28;207732;-72
2023/03/24 10:43:19;;;;;;;;;;;15.70;99.90;;;;;;5074180;28;19932;-73
2023/03/24 10:45:50;;;;;;;;;;;15.80;99.80;;;;;;5007003;28;207321;-72
2023/03/24 10:48:35;;;;;;;;;;;16.00;99.90;;;;;;5072838;28;19940;-72
2023/03/24 10:51:01;;;;;;;;;;;16.50;99.80;;;;;;5026389;28;209196;-72
2023/03/24 10:53:27;;;;;;;;;;;16.60;99.20;;;;;;5068178;28;19925;-72
2023/03/24 10:55:53;;;;;;;;;;;16.60;98.80;;;;;;4941392;28;1740359;-72
2023/03/24 10:58:25;;;;;;;;;;;16.50;99.00;;;;;;5071599;28;19928;-73
2023/03/24 11:00:51;;;;;;;;;;;16.40;97.70;;;;;;5021662;28;205655;-72
2023/03/24 11:03:22;;;;;;;;;;;16.20;98.00;;;;;;5076428;28;19971;-71
2023/03/24 11:05:56;;;;;;;;;;;16.10;99.40;;;;;;5009687;28;205884;-71
2023/03/24 11:08:27;;;;;;;;;;;16.40;97.80;;;;;;5067221;28;20304;-72
2023/03/24 11:10:54;;;;;;;;;;;16.50;98.90;;;;;;5006024;28;207763;-71
2023/03/24 11:13:28;;;;;;;;;;;16.50;97.90;;;;;;5058193;28;19932;-70
2023/03/24 11:16:10;;;;;;;;;;;16.40;98.20;;;;;;5002784;28;216214;-70
2023/03/24 11:18:37;;;;;;;;;;;16.30;98.40;;;;;;5061075;28;19928;-73
2023/03/24 11:21:04;;;;;;;;;;;15.90;99.20;;;;;;5011202;28;124996;-71
2023/03/24 11:23:30;;;;;;;;;;;16.00;98.10;;;;;;5064860;28;20541;-72
2023/03/24 11:26:03;;;;;;;;;;;16.00;98.50;;;;;;5013225;28;216083;-73
2023/03/24 11:28:34;;;;;;;;;;;16.20;97.70;;;;;;5062086;28;19936;-74
2023/03/24 11:31:04;;;;;;;;;;;15.40;98.10;;;;;;5019059;28;208204;-75
2023/03/24 11:33:32;;;;;;;;;;;15.50;98.20;;;;;;5039320;28;19932;-74
2023/03/24 11:35:59;;;;;;;;;;;15.00;99.00;;;;;;4975757;28;225594;-74
2023/03/24 11:38:30;;;;;;;;;;;15.20;98.80;;;;;;5061592;28;19931;-74
2023/03/24 11:40:58;;;;;;;;;;;15.70;98.30;;;;;;4994858;28;209855;-74
2023/03/24 11:43:25;;;;;;;;;;;15.70;98.40;;;;;;5058406;28;19920;-73
2023/03/24 11:45:56;;;;;;;;;;;15.30;98.00;;;;;;5017247;28;87604;-74
2023/03/24 11:48:34;;;;;;;;;;;15.40;99.40;;;;;;5059559;28;20397;-75
2023/03/24 11:51:01;;;;;;;;;;;15.60;98.70;;;;;;5002859;28;206844;-73
2023/03/24 11:53:30;;;;;;;;;;;15.60;98.40;;;;;;5062319;28;19928;-74
2023/03/24 11:56:18;;;;;;;;;;;15.50;98.60;;;;;;5014927;28;219381;-74
2023/03/24 11:58:49;;;;;;;;;;;15.60;99.00;;;;;;5006163;28;213079;-73
2023/03/24 12:01:19;;;;;;;;;;;15.00;99.30;;;;;;5061143;28;20781;-73
2023/03/24 12:03:52;;;;;;;;;;;14.70;99.50;;;;;;5006601;28;206049;-73
2023/03/24 12:06:38;;;;;;;;;;;15.00;99.90;;;;;;5039137;28;109931;-72
2023/03/24 12:09:08;;;;;;;;;;;15.50;99.10;;;;;;5009512;28;206358;-72
2023/03/24 12:11:52;;;;;;;;;;;15.70;99.40;;;;;;5056544;28;19920;-72
2023/03/24 12:14:26;;;;;;;;;;;15.50;99.90;;;;;;5007954;28;207519;-74
2023/03/24 12:17:07;;;;;;;;;;;15.80;99.50;;;;;;5045259;28;20250;-73
2023/03/24 12:19:42;;;;;;;;;;;15.60;99.40;;;;;;5009109;28;212260;-73
2023/03/24 12:22:27;;;;;;;;;;;15.90;99.30;;;;;;5060620;28;19921;-72
2023/03/24 12:24:56;;;;;;;;;;;15.50;99.40;;;;;;5002806;28;207181;-73
2023/03/24 12:27:26;;;;;;;;;;;15.30;98.30;;;;;;5062744;28;19935;-73
2023/03/24 12:30:14;;;;;;;;;;;14.90;99.10;;;;;;4998221;28;206445;-73
2023/03/24 12:32:41;;;;;;;;;;;14.50;99.30;;;;;;5057740;28;19925;-73
2023/03/24 12:35:26;;;;;;;;;;;14.30;99.20;;;;;;5020638;28;206925;-74
2023/03/24 12:37:58;;;;;;;;;;;14.00;99.40;;;;;;5061887;28;20436;-72
2023/03/24 12:40:29;;;;;;;;;;;15.00;99.00;;;;;;4984536;28;231864;-73
2023/03/24 12:43:05;;;;;;;;;;;15.50;97.40;;;;;;5059554;28;20556;-73
2023/03/24 12:45:57;;;;;;;;;;;15.60;95.70;;;;;;5002217;28;209204;-70
2023/03/24 12:48:41;;;;;;;;;;;16.40;96.20;;;;;;5060063;28;20466;-72
2023/03/24 12:51:17;;;;;;;;;;;16.60;95.60;;;;;;5031839;28;21317;-72
2023/03/24 12:53:43;;;;;;;;;;;16.70;94.90;;;;;;5024134;28;207098;-70
2023/03/24 12:56:22;;;;;;;;;;;16.70;95.20;;;;;;5068000;28;19950;-72
2023/03/24 12:58:49;;;;;;;;;;;16.90;95.40;;;;;;5009945;28;206964;-71
2023/03/24 13:01:19;;;;;;;;;;;16.80;95.30;;;;;;5049552;28;19920;-73
2023/03/24 13:03:47;;;;;;;;;;;16.30;95.70;;;;;;5001733;28;208105;-72
2023/03/24 13:06:39;;;;;;;;;;;16.40;95.40;;;;;;5044381;28;145566;-72
2023/03/24 13:09:13;;;;;;;;;;;16.50;95.00;;;;;;5012757;28;206802;-72
2023/03/24 13:11:45;;;;;;;;;;;16.30;94.80;;;;;;5062488;28;20627;-73
2023/03/24 13:14:14;;;;;;;;;;;16.00;95.00;;;;;;5008397;28;221300;-72
2023/03/24 13:16:41;;;;;;;;;;;16.10;95.70;;;;;;5071537;28;19924;-72
2023/03/24 13:19:13;;;;;;;;;;;15.60;95.90;;;;;;5010613;28;207415;-72
2023/03/24 13:21:40;;;;;;;;;;;15.80;96.10;;;;;;5067525;28;19928;-72
2023/03/24 13:24:07;;;;;;;;;;;16.10;96.30;;;;;;5006047;28;207197;-72
2023/03/24 13:26:37;;;;;;;;;;;16.70;96.40;;;;;;5076620;28;19931;-73
2023/03/24 13:29:06;;;;;;;;;;;16.60;96.30;;;;;;5010635;28;207041;-73
2023/03/24 13:31:59;;;;;;;;;;;16.50;96.50;;;;;;5061816;28;20458;-72
2023/03/24 13:34:36;;;;;;;;;;;16.80;96.70;;;;;;5005877;28;213778;-71
2023/03/24 13:37:05;;;;;;;;;;;16.10;96.90;;;;;;5062725;28;20278;-73
2023/03/24 13:39:33;;;;;;;;;;;15.60;97.40;;;;;;5008901;28;209791;-72
2023/03/24 13:41:59;;;;;;;;;;;15.10;97.50;;;;;;5063965;28;19936;-73
2023/03/24 13:44:29;;;;;;;;;;;14.80;98.20;;;;;;5018481;28;207047;-73
2023/03/24 13:47:07;;;;;;;;;;;15.20;98.70;;;;;;5069936;28;20282;-72
2023/03/24 13:49:33;;;;;;;;;;;15.20;98.80;;;;;;5008534;28;206677;-73
2023/03/24 13:52:03;;;;;;;;;;;14.80;98.70;;;;;;5073286;28;19924;-73
2023/03/24 13:54:29;;;;;;;;;;;15.00;99.00;;;;;;4994511;28;210218;-72
2023/03/24 13:57:01;;;;;;;;;;;14.60;98.60;;;;;;5041889;28;19925;-72
2023/03/24 14:00:02;;;;;;;;;;;14.40;98.80;;;;;;5001376;28;207496;-71
2023/03/24 14:02:27;;;;;;;;;;;14.10;98.90;;;;;;5035861;28;19951;-72
2023/03/24 14:04:54;;;;;;;;;;;14.20;99.60;;;;;;4987181;28;274735;-71
2023/03/24 14:07:38;;;;;;;;;;;15.40;99.40;;;;;;5062173;28;19940;-72
2023/03/24 14:10:13;;;;;;;;;;;15.40;98.90;;;;;;5013290;28;207684;-71
2023/03/24 14:12:57;;;;;;;;;;;15.30;98.50;;;;;;5060524;28;20320;-70
2023/03/24 14:15:30;;;;;;;;;;;15.40;98.70;;;;;;4984830;28;219348;-70
2023/03/24 14:18:16;;;;;;;;;;;16.30;98.30;;;;;;5053613;28;19928;-71
2023/03/24 14:20:54;;;;;;;;;;;16.10;98.20;;;;;;4983302;28;174156;-71
2023/03/24 14:23:23;;;;;;;;;;;16.50;97.90;;;;;;5056158;28;19925;-71
2023/03/24 14:25:53;;;;;;;;;;;16.30;98.20;;;;;;5013729;28;250729;-70
2023/03/24 14:28:27;;;;;;;;;;;15.50;98.40;;;;;;5066062;28;19939;-71
2023/03/24 14:30:55;;;;;;;;;;;15.30;98.50;;;;;;5011970;28;207734;-70